Racecast

Karyn Rapundalo

Ann Arbor Huron (MI) · 12 · SECMI D1 · Compare head to head

Athlete rating 129.1 2010 XC season
Best race 131.5 XC
Races 55
Seasons 5 2007 — 2011

RankedNation #2714·MI #99·MI D1 #70·SEC #10·Team #3 ?

Speed rating — all races

Cross Country

XC speed rating

2010 XC 127.8

Ann Arbor Huron (MI) · Grade 12

Date Meet Event Result Place Rating Difficulty PR/SR Flags
2010-11-06 Michigan International Speedway (MIS) 5000m 19:06.4 63rd · 3rd on team 128.3 -0.006 CSR
2010-10-30 Willow Metropark OFFICIAL 5000m 19:00.6 6th · 2nd on team 130.6 -0.003 ★CR SR CSR RSR
2010-10-21 Hudson Mills Metropark - OFFICIAL 5000m 19:20 5th · 3rd on team 127.7 -0.006 SR CSR
2010-10-09 Portage West MS 5000m -0.003 CSR
2010-10-02 Huron Meadows Metropark OFFICIAL 5000m 19:24.1 11th · 2nd on team 126.9 -0.004 ★CR SR CSR
2010-09-28 Pioneer HS 5000m 19:35.9 4th · 2nd on team 129.6 +0.018 ★CR SR CSR RSR
2010-09-25 Linden MS/HS OFFICIAL 5000m 20:20.1 16th · 3rd on team 124.0 +0.023 ★CR CSR
2010-09-17 Forest Akers East Golf Course 5000m 19:51 19th · 2nd on team 127.7 +0.019 SR CSR RSR
2010-09-14 Heritage Park (Adrian) OFFICIAL 5000m 20:08 4th · 2nd on team 127.2 +0.035 ★CR SR CSR RSR

2009 XC 128.6

Ann Arbor Huron (MI) · Grade 11

Date Meet Event Result Place Rating Difficulty PR/SR Flags
2009-11-07 Michigan International Speedway (MIS) 5000m 19:09.3 23rd · 1st on team 131.5 -0.006 CSR
2009-10-31 Willow Metropark OFFICIAL 5000m 19:18.7 4th · 2nd on team 131.1 -0.003 CSR
2009-10-22 Hudson Mills Metropark - OFFICIAL 5000m 19:27 10th · 2nd on team 128.0 -0.006 CSR
2009-10-10 Portage West MS 5000m 19:08.3 19th · 2nd on team 130.3 -0.003 ★CR SR CSR
2009-10-03 Haslett HS 5000m 19:32.7 5th · 2nd on team 127.7 -0.007 CSR
2009-09-26 Ella Sharp Park OFFICIAL 5000m 19:33 25th · 2nd on team 126.1 -0.001 ★CR CSR
2009-09-18 Forest Akers East Golf Course 5000m 19:25 6th · 2nd on team 131.5 +0.019 ★CR SR CSR RSR
2009-09-15 Munson Park 5000m 19:53 8th · 2nd on team 126.0 +0.007 ★CR SR CSR RSR
2009-09-01 Ypsilanti HS 5000m 20:53 1st · 1st on team 125.0 +0.044 ★CR SR CSR RSR

2008 XC 125.8

Ann Arbor Huron (MI) · Grade 10

Date Meet Event Result Place Rating Difficulty PR/SR Flags
2008-11-01 Michigan International Speedway (MIS) 5000m 19:21.8 68th · 3rd on team 128.0 -0.006 CSR
2008-10-25 Willow Metropark OFFICIAL 5000m 19:56.3 14th · 2nd on team 125.7 -0.003
2008-10-16 Hudson Mills Metropark - OFFICIAL 5000m 19:13 1st · 1st on team 129.4 -0.006 ★CR SR CSR
2008-10-04 Portage West MS 5000m 19:57.3 64th · 3rd on team 124.8 -0.003 CR CSR
2008-09-27 Haslett HS 5000m 19:17 2nd · 2nd on team 130.2 -0.007 ★CR SR CSR RSR
2008-09-13 Willow Metropark OFFICIAL 5000m 19:37.5 1st · 1st on team 128.7 -0.003 SR CSR RSR
2008-09-09 Mill Pond Park 5000m 20:54.9 2nd · 2nd on team 124.1 +0.047 SR CSR RSR
2008-09-05 Cranbrook Kingswood 5000m 21:03 3rd · 3rd on team 121.6 +0.042 ★CR SR CSR RSR
2008-08-27 Ypsilanti HS 5000m 21:46 7th · 5th on team 119.9 +0.044 CR SR CSR RSR

2007 XC 125.4

Ann Arbor Huron (MI) · Grade 9

Date Meet Event Result Place Rating Difficulty PR/SR Flags
2007-11-03 Michigan International Speedway (MIS) 5000m 19:00.5 46th · 1st on team 131.0 -0.006 ★PR ★CR SR CSR
2007-10-27 Willow Metropark OFFICIAL 5000m 19:07 4th · 1st on team 131.5 -0.003 PR CR R SR CSR RSR
2007-10-06 Portage West MS 5000m 20:40 10th · 4th on team 122.6 -0.003 CR CSR
2007-10-02 Mill Pond Park 5000m 20:54 2nd · 2nd on team 124.7 +0.047 ★CR CSR
2007-09-29 Haslett HS 5000m 19:29 2nd · 2nd on team 128.9 -0.007 PR CR R SR CSR RSR
2007-09-15 Willow Metropark OFFICIAL 5000m 19:34.2 4th · 1st on team 126.9 -0.003 PR CR R SR CSR RSR
2007-09-11 Rolling Hills 5000m 21:01.7 5th · 5th on team 122.4 +0.025 PR ★CR R SR CSR RSR
2007-09-07 Cranbrook Kingswood 5000m 22:33 6th · 6th on team 115.6 +0.042 PR CR R SR CSR RSR

Track & Field

TF speed rating

2011 TF 122.7

Ann Arbor Huron (MI) · Grade 12

Date Meet Event Result Place Rating Difficulty PR/SR Flags
2011-04-12 Huron @ Monroe 3200m 12:07.2 1st · 1st on team 122.7 -0.022 SR RSR

2010 TF 122.0

Ann Arbor Huron (MI) · Grade 11

Date Meet Event Result Place Rating Difficulty PR/SR Flags
2010-06-01 Race results → 800m 2:25.45 4th · 1st on team ★PR SR
2010-05-21 Race results → 3200m 11:46.1 6th · 1st on team SR
2010-05-04 Saline vs. AA Huron 800m 2:33 1st · 1st on team 119.7 -0.024
2010-05-04 Saline vs. AA Huron 1600m 5:31.4 1st · 1st on team 124.8 -0.024 SR RSR
2010-04-30 Don Lukens Invitational 3200m 12:17.06 2nd · 1st on team 121.7 -0.025
2010-04-27 Huron vs. Pioneer 800m 2:34.9 1st · 1st on team 119.5 -0.017
2010-04-27 Huron vs. Pioneer 1600m 5:36.4 1st · 1st on team 123.9 -0.017 RSR
2010-04-21 Bedford vs. AA Huron 1600m 5:33.9 1st · 1st on team 123.3 -0.024 SR RSR
2010-04-21 Bedford vs. AA Huron 800m 2:31.8 1st · 1st on team 120.2 -0.024 PR SR
2010-04-13 Monroe vs. AA Huron 3200m 12:09.9 1st · 1st on team 121.8 -0.024 SR RSR
2010-04-13 Monroe vs. AA Huron 1600m 5:35.5 2nd · 1st on team 123.2 -0.024 SR RSR

2009 TF 124.6

Ann Arbor Huron (MI) · Grade 10

Date Meet Event Result Place Rating Difficulty PR/SR Flags
2009-05-30 2009 MHSAA LP D1 State T&F Championships 3200m 11:57.47 23rd · 2nd on team 124.5 -0.029
2009-05-26 Larry Steeb Memorial Meet of Champions 1600m 5:26.74 3rd · 2nd on team 126.9 -0.021 ★PR SR
2009-05-14 TempMeet 3200m 11:34 1st · 1st on team 130.4 -0.024 ★PR SR RSR
2009-05-14 TempMeet 1600m 5:30 2nd · 2nd on team 126.3 -0.024
2009-05-09 River Rat Invitational 1600m 5:30 2nd · 1st on team 126.1 -0.024 PR SR RSR
2009-05-09 River Rat Invitational 800m 2:33.6 3rd · 2nd on team 120.4 -0.024 PR SR
2009-05-01 Golden Triangle Meet of Champions 1600m 5:33.04 7th · 2nd on team 123.5 -0.033 PR SR RSR
2009-05-01 Golden Triangle Meet of Champions 3200m 12:27.91 15th · 1st on team 119.2 -0.033 PR SR